Meadow Bridge, West Virginia
Current Conditions -  °F | °C
As of 3:51 PM on Sunday 23 Nov 2014 (Local Time) from KBKW Reporting Station
Overcast Overcast  
Wind Chill: 42°   Ceiling: 9000
Heat Index: 49°   Visibility: 10mi
Dew Point: 43°   Wind: 18mph
Humidity: 80%   Direction: 130°SE
Pressure: 29.88"   Gusts: 36mph
Location:  37.86°N, 80.85°W
Report Text: KBKW 232051Z AUTO 13016G31KT 10SM FEW065 OVC090 09/06 A2988 RMK AO2 PK WND 13031/2049 RAE48 PRESFR SLP121 P0001 60001 T00940061 58037
Loading
Personal Weather Stations






























Interactive Weather Map New forecast layout! Learn more

10-Day Weather Forecast

Advertisements
Track Severe Weather on mobile